createdAt,value
2022-12-12T00:01:34.307Z,20.58
2022-12-12T00:04:00.998Z,20.45
2022-12-12T00:06:28.255Z,20.52
2022-12-12T00:08:54.938Z,20.33
2022-12-12T00:11:22.883Z,20.60
2022-12-12T00:13:49.958Z,20.41
2022-12-12T00:16:17.230Z,20.61
2022-12-12T00:18:43.892Z,20.50
2022-12-12T00:21:19.941Z,20.35
2022-12-12T00:23:47.200Z,20.25
2022-12-12T00:26:20.394Z,20.52
2022-12-12T00:28:47.309Z,20.63
2022-12-12T00:31:14.007Z,20.50
2022-12-12T00:33:40.857Z,20.64
2022-12-12T00:36:08.562Z,20.64
2022-12-12T00:38:35.191Z,20.60
2022-12-12T00:41:02.449Z,20.56
2022-12-12T00:43:29.385Z,20.65
2022-12-12T00:45:59.326Z,20.66
2022-12-12T00:48:28.219Z,20.63
2022-12-12T00:50:56.354Z,20.67
2022-12-12T00:53:23.351Z,20.67
2022-12-12T00:55:59.530Z,20.67
2022-12-12T00:58:27.083Z,20.54
2022-12-12T01:00:54.457Z,20.70
2022-12-12T01:03:22.015Z,20.65
2022-12-12T01:05:48.658Z,20.69
2022-12-12T01:08:15.412Z,20.44
2022-12-12T01:10:42.249Z,20.70
2022-12-12T01:13:08.961Z,20.66
2022-12-12T01:15:35.531Z,20.69
2022-12-12T01:18:02.144Z,20.68
2022-12-12T01:20:28.944Z,20.72
2022-12-12T01:22:56.688Z,20.66
2022-12-12T01:25:23.816Z,20.64
2022-12-12T01:27:50.594Z,20.73
2022-12-12T01:30:19.725Z,20.73
2022-12-12T01:32:46.496Z,20.73
2022-12-12T01:35:13.176Z,20.75
2022-12-12T01:37:41.355Z,20.74
2022-12-12T01:40:13.244Z,20.74
2022-12-12T01:42:39.892Z,20.65
2022-12-12T01:45:06.989Z,20.58
2022-12-12T01:47:33.656Z,20.75
2022-12-12T01:50:09.385Z,20.75
2022-12-12T01:52:44.197Z,20.47
2022-12-12T01:55:16.029Z,20.64
2022-12-12T01:57:46.197Z,20.67
2022-12-12T02:00:14.459Z,20.73
2022-12-12T02:02:46.107Z,20.76
2022-12-12T02:05:28.061Z,20.72
2022-12-12T02:07:55.744Z,20.76
2022-12-12T02:10:22.344Z,20.76
2022-12-12T02:12:49.059Z,20.76
2022-12-12T02:15:15.909Z,20.45
2022-12-12T02:18:06.688Z,20.76
2022-12-12T02:21:04.351Z,20.76
2022-12-12T02:24:03.289Z,20.77
2022-12-12T02:26:51.585Z,20.76
2022-12-12T02:29:19.214Z,20.75
2022-12-12T02:31:52.807Z,20.75
2022-12-12T02:34:45.495Z,20.58
2022-12-12T02:37:18.640Z,20.76
2022-12-12T02:40:10.357Z,20.75
2022-12-12T02:42:55.735Z,20.76
2022-12-12T02:45:28.227Z,20.75
2022-12-12T02:48:01.218Z,20.71
2022-12-12T02:50:30.774Z,20.75
2022-12-12T02:52:59.919Z,20.75
2022-12-12T02:55:26.894Z,20.75
2022-12-12T02:57:54.211Z,20.76
2022-12-12T03:00:21.574Z,20.76
2022-12-12T03:03:28.430Z,20.75
2022-12-12T03:06:16.621Z,20.75
2022-12-12T03:08:55.344Z,20.75
2022-12-12T03:11:50.880Z,20.73
2022-12-12T03:14:36.690Z,20.72
2022-12-12T03:17:14.295Z,20.67
2022-12-12T03:19:48.464Z,20.75
2022-12-12T03:22:27.162Z,20.75
2022-12-12T03:25:09.182Z,20.75
2022-12-12T03:27:43.626Z,20.74
2022-12-12T03:30:16.581Z,20.74
2022-12-12T03:32:58.594Z,20.70
2022-12-12T03:35:33.972Z,20.74
2022-12-12T03:38:06.527Z,20.70
2022-12-12T03:40:43.609Z,20.74
2022-12-12T03:43:14.691Z,20.64
2022-12-12T03:45:55.568Z,20.74
2022-12-12T03:48:29.354Z,20.75
2022-12-12T03:50:58.288Z,20.64
2022-12-12T03:53:36.363Z,20.64
2022-12-12T03:56:19.914Z,20.72
2022-12-12T03:58:52.854Z,20.65
2022-12-12T04:01:28.403Z,20.61
2022-12-12T04:04:32.400Z,20.62
2022-12-12T04:07:06.113Z,20.69
2022-12-12T04:09:59.305Z,20.70
2022-12-12T04:12:56.541Z,20.70
2022-12-12T04:15:39.628Z,20.71
2022-12-12T04:18:16.338Z,20.71
2022-12-12T04:21:13.103Z,20.58
2022-12-12T04:23:56.379Z,20.69
2022-12-12T04:26:41.696Z,20.70
2022-12-12T04:29:23.616Z,20.69
2022-12-12T04:32:12.794Z,20.69
2022-12-12T04:34:52.172Z,20.68
2022-12-12T04:37:23.921Z,20.68
2022-12-12T04:39:54.242Z,20.63
2022-12-12T04:42:25.723Z,20.68
2022-12-12T04:44:56.179Z,20.68
2022-12-12T04:47:24.764Z,20.63
2022-12-12T04:49:53.882Z,20.49
2022-12-12T04:52:22.443Z,20.56
2022-12-12T04:55:24.418Z,20.67
2022-12-12T04:57:54.726Z,20.67
2022-12-12T05:00:22.957Z,20.62
2022-12-12T05:02:55.527Z,20.66
2022-12-12T05:05:29.631Z,20.52
2022-12-12T05:08:02.712Z,20.62
2022-12-12T05:10:30.287Z,20.65
2022-12-12T05:12:59.966Z,20.63
2022-12-12T05:15:28.323Z,20.64
2022-12-12T05:18:07.900Z,20.63
2022-12-12T05:20:34.822Z,20.36
2022-12-12T05:23:01.406Z,20.62
2022-12-12T05:25:28.075Z,20.63
2022-12-12T05:27:54.604Z,20.62
2022-12-12T05:30:21.570Z,20.60
2022-12-12T05:32:48.535Z,20.62
2022-12-12T05:35:15.393Z,20.40
2022-12-12T05:37:45.520Z,20.53
2022-12-12T05:40:16.557Z,20.60
2022-12-12T05:42:43.124Z,20.56
2022-12-12T05:45:11.126Z,20.61
2022-12-12T05:47:38.195Z,20.56
2022-12-12T05:50:05.890Z,20.61
2022-12-12T05:52:32.775Z,20.58
2022-12-12T05:54:59.469Z,20.49
2022-12-12T05:57:26.002Z,20.38
2022-12-12T05:59:52.751Z,20.45
2022-12-12T06:02:19.436Z,20.60
2022-12-12T06:04:47.689Z,20.25
2022-12-12T06:07:14.290Z,20.52
2022-12-12T06:09:41.008Z,20.60
2022-12-12T06:12:08.032Z,20.26
2022-12-12T06:14:34.665Z,20.46
2022-12-12T06:17:01.418Z,20.40
2022-12-12T06:19:28.204Z,20.32
2022-12-12T06:21:54.744Z,20.40
2022-12-12T06:24:21.440Z,20.57
2022-12-12T06:26:47.993Z,20.40
2022-12-12T06:29:15.223Z,20.55
2022-12-12T06:31:41.928Z,20.56
2022-12-12T06:34:08.573Z,20.38
2022-12-12T06:36:35.175Z,20.54
2022-12-12T06:39:02.039Z,20.54
2022-12-12T06:41:30.401Z,20.45
2022-12-12T06:43:57.349Z,20.55
2022-12-12T06:46:27.240Z,20.49
2022-12-12T06:48:55.135Z,20.50
2022-12-12T06:51:24.752Z,20.47
2022-12-12T06:53:51.527Z,20.49
2022-12-12T06:56:24.006Z,20.32
2022-12-12T06:58:51.646Z,20.46
2022-12-12T07:01:20.386Z,20.21
2022-12-12T07:03:49.523Z,20.48
2022-12-12T07:06:17.392Z,19.77
2022-12-12T07:08:44.325Z,20.47
2022-12-12T07:11:13.274Z,20.48
2022-12-12T07:13:40.532Z,20.38
2022-12-12T07:16:07.530Z,20.47
2022-12-12T07:18:35.008Z,20.32
2022-12-12T07:21:05.749Z,20.41
2022-12-12T07:23:33.636Z,20.45
2022-12-12T07:26:04.108Z,20.44
2022-12-12T07:28:31.039Z,20.38
2022-12-12T07:30:57.669Z,20.44
2022-12-12T07:33:29.760Z,20.29
2022-12-12T07:36:02.812Z,20.23
2022-12-12T07:38:29.371Z,20.33
2022-12-12T07:40:56.019Z,20.39
2022-12-12T07:43:26.467Z,20.39
2022-12-12T07:45:53.460Z,20.37
2022-12-12T07:48:20.287Z,20.30
2022-12-12T07:50:50.420Z,20.38
2022-12-12T07:53:16.945Z,20.39
2022-12-12T07:55:43.516Z,20.32
2022-12-12T07:58:10.143Z,20.38
2022-12-12T08:00:36.747Z,20.32
2022-12-12T08:03:03.420Z,20.17
2022-12-12T08:05:29.980Z,20.34
2022-12-12T08:07:56.704Z,20.29
2022-12-12T08:10:23.314Z,20.39
2022-12-12T08:12:50.138Z,20.23
2022-12-12T08:15:17.990Z,20.29
2022-12-12T08:17:44.783Z,20.40
2022-12-12T08:20:11.683Z,20.40
2022-12-12T08:22:38.287Z,20.41
2022-12-12T08:25:05.279Z,20.40
2022-12-12T08:27:32.645Z,20.41
2022-12-12T08:29:59.223Z,20.41
2022-12-12T08:32:25.827Z,20.41
2022-12-12T08:34:58.883Z,20.39
2022-12-12T08:37:25.764Z,20.26
2022-12-12T08:39:55.563Z,20.42
2022-12-12T08:42:22.786Z,20.43
2022-12-12T08:44:49.911Z,20.44
2022-12-12T08:47:16.518Z,20.36
2022-12-12T08:49:43.511Z,20.15
2022-12-12T08:52:10.427Z,20.37
2022-12-12T08:54:38.141Z,20.44
2022-12-12T08:57:04.769Z,20.43
2022-12-12T08:59:31.303Z,20.35
2022-12-12T09:01:58.048Z,20.44
2022-12-12T09:04:24.689Z,20.43
2022-12-12T09:06:51.293Z,20.44
2022-12-12T09:11:42.517Z,20.43
2022-12-12T09:14:09.143Z,20.44
2022-12-12T09:16:35.724Z,20.44
2022-12-12T09:19:02.346Z,20.45
2022-12-12T09:21:28.857Z,20.45
2022-12-12T09:23:55.435Z,20.46
2022-12-12T09:26:22.099Z,20.46
2022-12-12T09:28:49.373Z,20.49
2022-12-12T09:31:17.622Z,20.41
2022-12-12T09:33:44.390Z,20.50
2022-12-12T09:36:14.994Z,20.41
2022-12-12T09:38:41.851Z,20.52
2022-12-12T09:41:20.411Z,20.53
2022-12-12T09:44:09.983Z,20.55
2022-12-12T09:46:44.238Z,20.52
2022-12-12T09:49:12.970Z,20.57
2022-12-12T09:51:41.798Z,20.58
2022-12-12T09:54:13.196Z,20.58
2022-12-12T09:56:53.543Z,20.59
2022-12-12T09:59:29.780Z,20.58
2022-12-12T10:02:38.163Z,20.62
2022-12-12T10:05:17.203Z,20.62
2022-12-12T10:07:57.497Z,20.51
2022-12-12T10:10:40.235Z,20.64
2022-12-12T10:13:14.728Z,20.66
2022-12-12T10:15:46.468Z,20.67
2022-12-12T10:18:26.902Z,20.67
2022-12-12T10:20:57.475Z,20.69
2022-12-12T10:23:33.355Z,20.69
2022-12-12T10:26:07.087Z,20.70
2022-12-12T10:28:35.711Z,20.72
2022-12-12T10:31:30.235Z,20.73
2022-12-12T10:34:09.022Z,20.72
2022-12-12T10:39:14.536Z,20.73
2022-12-12T10:41:44.031Z,20.72
2022-12-12T10:44:13.972Z,20.73
2022-12-12T10:46:59.632Z,20.73
2022-12-12T10:49:26.557Z,20.59
2022-12-12T10:54:28.070Z,20.72
2022-12-12T10:57:09.376Z,20.72
2022-12-12T10:59:48.158Z,20.69
2022-12-12T11:02:39.524Z,20.72
2022-12-12T11:05:21.692Z,20.72
2022-12-12T11:07:59.533Z,20.69
2022-12-12T11:10:35.537Z,20.70
2022-12-12T11:13:13.551Z,20.71
2022-12-12T11:15:58.443Z,20.72
2022-12-12T11:18:26.603Z,20.71
2022-12-12T11:20:57.269Z,20.72
2022-12-12T11:23:26.866Z,20.73
2022-12-12T11:25:57.267Z,20.69
2022-12-12T11:28:27.953Z,20.47
2022-12-12T11:30:56.485Z,20.75
2022-12-12T11:33:32.440Z,20.76
2022-12-12T11:35:59.593Z,20.77
2022-12-12T11:38:37.206Z,20.77
2022-12-12T11:41:07.266Z,20.77
2022-12-12T11:43:52.421Z,20.78
2022-12-12T11:46:23.638Z,20.78
2022-12-12T11:48:53.242Z,20.78
2022-12-12T11:51:43.181Z,20.78
2022-12-12T11:54:16.044Z,20.78
2022-12-12T11:56:58.434Z,20.78
2022-12-12T11:59:43.716Z,20.78
2022-12-12T12:02:24.724Z,20.59
2022-12-12T12:05:20.368Z,20.76
2022-12-12T12:08:24.577Z,20.77
2022-12-12T12:11:26.491Z,20.76
2022-12-12T12:14:05.516Z,20.76
2022-12-12T12:16:35.152Z,20.77
2022-12-12T12:19:31.038Z,20.73
2022-12-12T12:22:30.122Z,20.76
2022-12-12T12:25:07.382Z,20.75
2022-12-12T12:28:03.350Z,20.73
2022-12-12T12:30:34.934Z,20.73
2022-12-12T12:33:27.806Z,20.73
2022-12-12T12:36:17.673Z,20.72
2022-12-12T12:39:07.899Z,20.71
2022-12-12T12:42:05.258Z,20.71
2022-12-12T12:44:52.192Z,20.69
2022-12-12T12:47:33.829Z,20.68
2022-12-12T12:50:15.581Z,20.68
2022-12-12T12:53:06.550Z,20.68
2022-12-12T12:55:40.900Z,20.64
2022-12-12T12:58:18.147Z,20.54
2022-12-12T13:00:46.009Z,20.46
2022-12-12T13:03:24.394Z,20.63
2022-12-12T13:06:02.199Z,20.59
2022-12-12T13:08:35.195Z,20.60
2022-12-12T13:11:30.856Z,20.56
2022-12-12T13:14:12.086Z,20.67
2022-12-12T13:16:39.877Z,20.58
2022-12-12T13:19:13.508Z,20.67
2022-12-12T13:21:59.944Z,20.65
2022-12-12T13:24:42.136Z,20.65
2022-12-12T13:27:20.483Z,20.64
2022-12-12T13:30:00.003Z,20.63
2022-12-12T13:32:39.695Z,20.64
2022-12-12T13:35:14.152Z,20.64
2022-12-12T13:37:51.039Z,20.64
2022-12-12T13:40:36.515Z,20.65
2022-12-12T13:43:24.884Z,20.64
2022-12-12T13:45:51.523Z,20.65
2022-12-12T13:48:27.283Z,20.65
2022-12-12T13:51:27.991Z,20.65
2022-12-12T13:54:20.683Z,20.64
2022-12-12T13:56:53.074Z,20.64
2022-12-12T13:59:22.484Z,20.64
2022-12-12T14:01:55.390Z,20.66
2022-12-12T14:04:28.246Z,20.66
2022-12-12T14:06:59.303Z,20.65
2022-12-12T14:09:46.674Z,20.66
2022-12-12T14:12:31.816Z,20.62
2022-12-12T14:15:02.875Z,20.66
2022-12-12T14:17:38.332Z,20.66
2022-12-12T14:20:08.896Z,20.65
2022-12-12T14:22:38.234Z,20.66
2022-12-12T14:25:18.638Z,20.66
2022-12-12T14:27:51.169Z,20.65
2022-12-12T14:30:22.123Z,20.65
2022-12-12T14:33:01.877Z,20.65
2022-12-12T14:35:41.023Z,20.63
2022-12-12T14:38:33.931Z,20.64
2022-12-12T14:41:04.532Z,20.63
2022-12-12T14:43:37.122Z,20.62
2022-12-12T14:46:04.116Z,20.63
2022-12-12T14:51:10.986Z,20.62
2022-12-12T14:53:37.521Z,20.62
2022-12-12T14:56:11.024Z,20.62
2022-12-12T14:58:44.649Z,20.57
2022-12-12T15:01:11.902Z,20.60
2022-12-12T15:03:43.968Z,20.59
2022-12-12T15:06:20.902Z,20.53
2022-12-12T15:08:48.770Z,20.60
2022-12-12T15:11:18.064Z,20.61
2022-12-12T15:13:59.547Z,20.59
2022-12-12T15:16:40.690Z,20.59
2022-12-12T15:19:33.888Z,20.58
2022-12-12T15:22:00.660Z,20.50
2022-12-12T15:24:36.799Z,20.57
2022-12-12T15:27:04.972Z,20.49
2022-12-12T15:29:33.003Z,20.55
2022-12-12T15:32:03.783Z,20.46
2022-12-12T15:34:31.915Z,20.54
2022-12-12T15:37:10.746Z,20.53
2022-12-12T15:39:37.464Z,20.51
2022-12-12T15:42:04.272Z,20.49
2022-12-12T15:44:31.967Z,20.51
2022-12-12T15:46:58.972Z,20.36
2022-12-12T15:49:37.809Z,20.50
2022-12-12T15:52:29.660Z,20.49
2022-12-12T15:54:58.722Z,20.49
2022-12-12T15:57:44.991Z,20.48
2022-12-12T16:00:36.044Z,20.42
2022-12-12T16:03:20.451Z,20.49
2022-12-12T16:05:58.886Z,20.47
2022-12-12T16:08:35.886Z,20.45
2022-12-12T16:11:37.510Z,20.47
2022-12-12T16:14:06.017Z,20.46
2022-12-12T16:16:48.245Z,20.45
2022-12-12T16:19:38.190Z,20.44
2022-12-12T16:22:26.778Z,20.44
2022-12-12T16:24:57.203Z,20.43
2022-12-12T16:27:23.796Z,20.41
2022-12-12T16:29:50.726Z,20.40
2022-12-12T16:32:20.296Z,20.38
2022-12-12T16:34:46.914Z,20.35
2022-12-12T16:37:16.526Z,20.38
2022-12-12T16:39:44.034Z,20.41
2022-12-12T16:42:15.789Z,20.34
2022-12-12T16:44:43.111Z,20.32
2022-12-12T16:47:30.352Z,20.39
2022-12-12T16:49:57.159Z,20.38
2022-12-12T16:52:23.720Z,20.35
2022-12-12T16:54:53.533Z,20.11
2022-12-12T16:57:21.684Z,20.36
2022-12-12T16:59:51.020Z,20.34
2022-12-12T17:02:22.690Z,20.35
2022-12-12T17:04:50.747Z,20.35
2022-12-12T17:07:17.689Z,20.31
2022-12-12T17:09:44.868Z,20.34
2022-12-12T17:12:13.039Z,20.34
2022-12-12T17:14:39.699Z,20.34
2022-12-12T17:17:06.643Z,20.32
2022-12-12T17:19:34.407Z,20.22
2022-12-12T17:22:00.928Z,20.29
2022-12-12T17:24:28.310Z,20.31
2022-12-12T17:26:55.167Z,20.32
2022-12-12T17:29:24.999Z,20.25
2022-12-12T17:31:51.742Z,20.32
2022-12-12T17:34:18.352Z,20.31
2022-12-12T17:36:45.143Z,20.20
2022-12-12T17:39:11.764Z,20.31
2022-12-12T17:41:38.351Z,20.31
2022-12-12T17:44:05.123Z,20.30
2022-12-12T17:46:32.303Z,20.31
2022-12-12T17:48:59.415Z,20.30
2022-12-12T17:51:27.289Z,20.29
2022-12-12T17:53:54.591Z,20.26
2022-12-12T17:56:23.826Z,20.26
2022-12-12T17:58:51.049Z,20.27
2022-12-12T18:01:24.362Z,20.28
2022-12-12T18:03:51.791Z,20.28
2022-12-12T18:06:20.276Z,20.28
2022-12-12T18:08:47.647Z,20.28
2022-12-12T18:11:17.497Z,20.21
2022-12-12T18:13:45.614Z,20.27
2022-12-12T18:16:13.407Z,20.21
2022-12-12T18:18:40.780Z,20.25
2022-12-12T18:21:12.713Z,20.24
2022-12-12T18:23:39.766Z,20.25
2022-12-12T18:26:18.617Z,20.25
2022-12-12T18:28:57.239Z,20.24
2022-12-12T18:31:23.968Z,20.25
2022-12-12T18:33:51.587Z,20.18
2022-12-12T18:36:20.672Z,20.25
2022-12-12T18:38:49.722Z,20.23
2022-12-12T18:41:16.872Z,20.23
2022-12-12T18:43:43.865Z,20.17
2022-12-12T18:46:13.516Z,20.22
2022-12-12T18:48:44.090Z,20.22
2022-12-12T18:51:16.985Z,20.19
2022-12-12T18:53:44.688Z,20.22
2022-12-12T18:56:15.909Z,20.21
2022-12-12T18:58:43.449Z,20.20
2022-12-12T19:01:19.027Z,20.23
2022-12-12T19:03:48.984Z,20.24
2022-12-12T19:06:18.271Z,20.24
2022-12-12T19:08:44.812Z,20.24
2022-12-12T19:11:12.404Z,20.24
2022-12-12T19:13:39.527Z,20.18
2022-12-12T19:16:09.333Z,20.23
2022-12-12T19:18:36.121Z,20.22
2022-12-12T19:21:09.840Z,20.21
2022-12-12T19:23:37.180Z,20.20
2022-12-12T19:26:08.979Z,20.19
2022-12-12T19:28:36.190Z,20.13
2022-12-12T19:31:12.669Z,20.11
2022-12-12T19:33:39.495Z,20.09
2022-12-12T19:36:18.441Z,20.16
2022-12-12T19:38:46.459Z,20.16
2022-12-12T19:41:15.489Z,20.12
2022-12-12T19:43:43.729Z,20.15
2022-12-12T19:46:11.503Z,20.14
2022-12-12T19:48:38.791Z,20.07
2022-12-12T19:51:13.534Z,20.15
2022-12-12T19:53:43.630Z,20.08
2022-12-12T19:56:19.650Z,20.14
2022-12-12T19:58:47.346Z,20.04
2022-12-12T20:01:20.312Z,20.12
2022-12-12T20:03:52.087Z,20.12
2022-12-12T20:06:20.090Z,20.01
2022-12-12T20:08:47.729Z,20.04
2022-12-12T20:11:17.448Z,20.11
2022-12-12T20:13:49.488Z,20.11
2022-12-12T20:16:18.694Z,20.09
2022-12-12T20:18:52.487Z,20.11
2022-12-12T20:21:51.833Z,20.10
2022-12-12T20:24:09.683Z,20.01
2022-12-12T20:26:36.547Z,19.89
2022-12-12T20:29:03.760Z,20.06
2022-12-12T20:31:34.125Z,20.10
2022-12-12T20:34:01.388Z,20.08
2022-12-12T20:36:31.592Z,20.02
2022-12-12T20:39:00.587Z,20.04
2022-12-12T20:41:30.282Z,20.00
2022-12-12T20:43:59.265Z,20.14
2022-12-12T20:46:31.992Z,20.11
2022-12-12T20:49:00.661Z,20.16
2022-12-12T20:51:53.916Z,20.17
2022-12-12T20:54:17.314Z,20.06
2022-12-12T20:56:47.311Z,20.08
2022-12-12T20:59:14.445Z,20.15
2022-12-12T21:01:41.677Z,20.04
2022-12-12T21:04:09.700Z,20.04
2022-12-12T21:06:39.679Z,20.15
2022-12-12T21:09:09.384Z,20.05
2022-12-12T21:11:37.603Z,20.14
2022-12-12T21:14:04.348Z,20.08
2022-12-12T21:16:34.450Z,20.16
2022-12-12T21:19:04.544Z,20.16
2022-12-12T21:21:31.516Z,20.09
2022-12-12T21:23:58.293Z,20.17
2022-12-12T21:26:29.157Z,20.18
2022-12-12T21:28:57.615Z,20.18
2022-12-12T21:31:33.024Z,20.19
2022-12-12T21:34:00.317Z,20.19
2022-12-12T21:36:28.588Z,20.12
2022-12-12T21:38:57.588Z,20.21
2022-12-12T21:41:25.728Z,20.01
2022-12-12T21:43:54.296Z,20.02
2022-12-12T21:46:23.648Z,20.24
2022-12-12T21:49:09.679Z,20.20
2022-12-12T21:51:36.588Z,20.24
2022-12-12T21:54:04.925Z,20.17
2022-12-12T21:56:31.926Z,20.22
2022-12-12T21:58:58.946Z,20.26
2022-12-12T22:01:26.083Z,20.27
2022-12-12T22:03:54.608Z,20.28
2022-12-12T22:06:24.176Z,20.26
2022-12-12T22:08:51.464Z,20.29
2022-12-12T22:11:40.203Z,20.28
2022-12-12T22:14:07.294Z,20.30
2022-12-12T22:16:33.928Z,20.30
2022-12-12T22:19:10.730Z,20.30
2022-12-12T22:21:38.874Z,20.30
2022-12-12T22:24:06.016Z,20.18
2022-12-12T22:26:41.056Z,20.31
2022-12-12T22:29:12.890Z,20.31
2022-12-12T22:31:40.435Z,20.20
2022-12-12T22:34:15.645Z,20.32
2022-12-12T22:36:43.535Z,20.29
2022-12-12T22:39:25.880Z,20.26
2022-12-12T22:41:54.530Z,20.32
2022-12-12T22:44:22.924Z,20.28
2022-12-12T22:46:51.282Z,20.30
2022-12-12T22:49:20.967Z,20.31
2022-12-12T22:51:49.045Z,20.32
2022-12-12T22:54:15.867Z,20.20
2022-12-12T22:56:43.802Z,20.29
2022-12-12T22:59:13.336Z,20.27
2022-12-12T23:01:41.339Z,20.30
2022-12-12T23:04:12.784Z,20.31
2022-12-12T23:06:39.728Z,20.31
2022-12-12T23:09:14.202Z,20.27
2022-12-12T23:11:41.037Z,20.30
2022-12-12T23:14:11.328Z,20.31
2022-12-12T23:16:37.943Z,20.30
2022-12-12T23:19:06.277Z,20.21
2022-12-12T23:21:35.280Z,20.30
2022-12-12T23:24:02.335Z,20.29
2022-12-12T23:26:30.431Z,20.29
2022-12-12T23:29:00.231Z,20.26
2022-12-12T23:31:32.736Z,20.29
2022-12-12T23:34:02.226Z,20.28
2022-12-12T23:36:29.685Z,20.28
2022-12-12T23:39:01.066Z,20.28
2022-12-12T23:41:28.556Z,20.28
2022-12-12T23:43:55.740Z,20.28
2022-12-12T23:46:29.833Z,20.23
2022-12-12T23:49:13.270Z,20.28
2022-12-12T23:51:47.635Z,20.28
2022-12-12T23:54:17.429Z,20.28
2022-12-12T23:56:44.930Z,20.28
2022-12-12T23:59:17.556Z,20.21
